createdAt,value
2018-04-23T00:01:52.584Z,12.87
2018-04-23T00:04:20.901Z,15.23
2018-04-23T00:06:54.090Z,12.90
2018-04-23T00:09:21.818Z,16.43
2018-04-23T00:11:49.837Z,17.13
2018-04-23T00:14:17.427Z,13.67
2018-04-23T00:16:45.061Z,16.17
2018-04-23T00:19:12.625Z,12.70
2018-04-23T00:21:40.200Z,17.17
2018-04-23T00:24:07.806Z,16.40
2018-04-23T00:26:35.486Z,17.70
2018-04-23T00:29:03.057Z,15.00
2018-04-23T00:31:30.709Z,11.25
2018-04-23T00:33:58.308Z,16.90
2018-04-23T00:36:27.363Z,17.97
2018-04-23T00:38:55.259Z,15.00
2018-04-23T00:41:22.961Z,16.42
2018-04-23T00:43:50.549Z,17.60
2018-04-23T00:46:18.205Z,16.85
2018-04-23T00:48:46.563Z,15.40
2018-04-23T00:51:14.170Z,16.40
2018-04-23T00:53:41.761Z,15.60
2018-04-23T00:56:10.129Z,15.13
2018-04-23T00:58:37.773Z,17.52
2018-04-23T01:01:05.550Z,17.00
2018-04-23T01:03:33.189Z,16.30
2018-04-23T01:06:00.873Z,17.85
2018-04-23T01:08:28.658Z,19.12
2018-04-23T01:10:56.485Z,15.32
2018-04-23T01:13:24.237Z,18.10
2018-04-23T01:15:51.833Z,18.55
2018-04-23T01:18:19.640Z,20.17
2018-04-23T01:20:47.173Z,15.38
2018-04-23T01:23:14.866Z,19.17
2018-04-23T01:25:42.438Z,18.23
2018-04-23T01:28:10.015Z,16.70
2018-04-23T01:30:39.125Z,19.52
2018-04-23T01:33:06.818Z,19.05
2018-04-23T01:35:35.231Z,19.52
2018-04-23T01:38:02.933Z,19.92
2018-04-23T01:40:30.581Z,20.08
2018-04-23T01:42:58.166Z,17.08
2018-04-23T01:45:25.752Z,14.68
2018-04-23T01:47:53.325Z,18.62
2018-04-23T01:50:20.914Z,18.55
2018-04-23T01:52:48.590Z,19.23
2018-04-23T01:55:17.127Z,17.95
2018-04-23T01:57:45.467Z,18.55
2018-04-23T02:00:13.081Z,19.50
2018-04-23T02:02:42.834Z,18.35
2018-04-23T02:05:10.458Z,19.77
2018-04-23T02:07:38.893Z,19.20
2018-04-23T02:10:06.578Z,18.00
2018-04-23T02:12:34.240Z,18.58
2018-04-23T02:15:01.866Z,19.87
2018-04-23T02:17:29.538Z,18.87
2018-04-23T02:19:57.213Z,16.95
2018-04-23T02:22:24.794Z,19.65
2018-04-23T02:24:52.357Z,19.05
2018-04-23T02:27:20.034Z,20.00
2018-04-23T02:29:47.597Z,17.87
2018-04-23T02:32:15.307Z,17.55
2018-04-23T02:34:43.670Z,19.77
2018-04-23T02:37:11.284Z,19.02
2018-04-23T02:39:38.963Z,18.87
2018-04-23T02:42:06.765Z,18.35
2018-04-23T02:44:35.194Z,17.70
2018-04-23T02:47:02.820Z,17.55
2018-04-23T02:49:30.500Z,18.87
2018-04-23T02:51:58.386Z,17.25
2018-04-23T02:54:25.990Z,17.92
2018-04-23T02:56:53.694Z,17.80
2018-04-23T02:59:21.250Z,17.75
2018-04-23T03:01:48.910Z,17.05
2018-04-23T03:04:16.472Z,18.42
2018-04-23T03:06:44.029Z,18.27
2018-04-23T03:09:11.607Z,18.70
2018-04-23T03:11:39.194Z,17.12
2018-04-23T03:14:06.814Z,19.42
2018-04-23T03:16:34.411Z,16.92
2018-04-23T03:19:02.026Z,17.30
2018-04-23T03:21:29.667Z,16.75
2018-04-23T03:23:57.534Z,18.35
2018-04-23T03:26:25.103Z,16.23
2018-04-23T03:28:52.721Z,16.08
2018-04-23T03:31:21.102Z,16.60
2018-04-23T03:33:49.602Z,16.20
2018-04-23T03:36:17.273Z,15.40
2018-04-23T03:38:44.942Z,16.73
2018-04-23T03:41:12.505Z,16.30
2018-04-23T03:43:40.222Z,15.38
2018-04-23T03:46:07.843Z,17.30
2018-04-23T03:48:35.454Z,16.83
2018-04-23T03:51:03.114Z,18.00
2018-04-23T03:53:30.884Z,17.10
2018-04-23T03:55:58.577Z,16.58
2018-04-23T03:58:26.273Z,19.37
2018-04-23T04:00:53.979Z,17.15
2018-04-23T04:03:21.554Z,17.55
2018-04-23T04:05:49.778Z,18.77
2018-04-23T04:08:17.345Z,16.85
2018-04-23T04:10:44.934Z,16.60
2018-04-23T04:13:24.314Z,15.05
2018-04-23T04:18:59.398Z,15.18
2018-04-23T04:21:27.079Z,14.55
2018-04-23T04:23:55.387Z,14.30
2018-04-23T04:26:22.969Z,15.05
2018-04-23T04:28:50.572Z,14.95
2018-04-23T04:31:18.134Z,13.93
2018-04-23T04:33:45.701Z,13.85
2018-04-23T04:36:13.286Z,13.95
2018-04-23T04:38:40.875Z,14.95
2018-04-23T04:41:08.453Z,15.48
2018-04-23T04:43:36.829Z,14.60
2018-04-23T04:46:05.491Z,14.90
2018-04-23T04:48:33.278Z,16.45
2018-04-23T04:51:01.460Z,17.23
2018-04-23T04:53:29.938Z,15.40
2018-04-23T04:55:57.952Z,17.90
2018-04-23T04:58:25.573Z,15.80
2018-04-23T05:00:53.422Z,16.50
2018-04-23T05:03:21.085Z,16.52
2018-04-23T05:05:48.654Z,15.68
2018-04-23T05:08:16.329Z,16.85
2018-04-23T05:10:43.905Z,17.80
2018-04-23T05:13:12.298Z,16.08
2018-04-23T05:15:39.901Z,15.27
2018-04-23T05:18:07.573Z,17.40
2018-04-23T05:20:36.001Z,15.85
2018-04-23T05:23:03.799Z,18.83
2018-04-23T05:25:31.439Z,18.30
2018-04-23T05:27:59.082Z,18.20
2018-04-23T05:30:26.694Z,18.83
2018-04-23T05:32:54.302Z,17.23
2018-04-23T05:35:21.885Z,16.60
2018-04-23T05:37:49.449Z,17.27
2018-04-23T05:40:17.126Z,16.33
2018-04-23T05:42:44.699Z,16.08
2018-04-23T05:45:12.374Z,15.45
2018-04-23T05:47:39.970Z,14.90
2018-04-23T05:50:08.347Z,16.70
2018-04-23T05:52:35.948Z,14.38
2018-04-23T05:55:05.056Z,15.40
2018-04-23T05:57:32.832Z,15.05
2018-04-23T06:00:02.211Z,15.60
2018-04-23T06:02:30.787Z,14.93
2018-04-23T06:04:59.671Z,14.23
2018-04-23T06:07:27.529Z,12.60
2018-04-23T06:09:55.134Z,11.80
2018-04-23T06:12:22.763Z,10.70
2018-04-23T06:14:51.121Z,10.27
2018-04-23T06:17:18.698Z,11.60
2018-04-23T06:19:46.296Z,10.27
2018-04-23T06:22:13.907Z,9.30
2018-04-23T06:24:42.248Z,8.40
2018-04-23T06:27:10.015Z,9.17
2018-04-23T06:29:37.645Z,8.20
2018-04-23T06:32:05.264Z,7.43
2018-04-23T06:34:33.100Z,7.80
2018-04-23T06:37:01.209Z,8.30
2018-04-23T06:39:28.902Z,7.27
2018-04-23T06:41:56.560Z,7.20
2018-04-23T06:44:24.926Z,7.70
2018-04-23T06:46:52.520Z,7.40
2018-04-23T06:49:20.105Z,6.77
2018-04-23T06:51:47.700Z,7.93
2018-04-23T06:54:15.346Z,7.67
2018-04-23T06:56:42.913Z,7.50
2018-04-23T06:59:10.535Z,7.67
2018-04-23T07:01:38.930Z,7.97
2018-04-23T07:04:06.630Z,6.97
2018-04-23T07:06:34.246Z,7.60
2018-04-23T07:09:02.020Z,6.60
2018-04-23T07:11:30.609Z,7.00
2018-04-23T07:13:58.632Z,7.07
2018-04-23T07:16:26.265Z,7.17
2018-04-23T07:18:53.858Z,6.13
2018-04-23T07:21:21.430Z,6.90
2018-04-23T07:23:49.009Z,7.30
2018-04-23T07:26:16.859Z,7.00
2018-04-23T07:28:44.442Z,6.77
2018-04-23T07:31:12.010Z,7.10
2018-04-23T07:33:39.641Z,6.57
2018-04-23T07:36:07.444Z,7.03
2018-04-23T07:38:35.206Z,6.47
2018-04-23T07:41:02.920Z,7.90
2018-04-23T07:43:31.567Z,7.30
2018-04-23T07:46:01.616Z,7.33
2018-04-23T07:48:30.440Z,6.40
2018-04-23T07:50:59.789Z,6.53
2018-04-23T07:53:27.709Z,7.97
2018-04-23T07:55:56.109Z,7.23
2018-04-23T07:58:24.446Z,7.03
2018-04-23T08:00:52.793Z,7.20
2018-04-23T08:03:20.354Z,7.80
2018-04-23T08:05:47.949Z,7.50
2018-04-23T08:08:15.525Z,7.57
2018-04-23T08:10:43.111Z,6.23
2018-04-23T08:13:10.706Z,6.97
2018-04-23T08:15:39.276Z,7.87
2018-04-23T08:18:07.676Z,6.93
2018-04-23T08:20:36.050Z,7.67
2018-04-23T08:23:03.664Z,6.70
2018-04-23T08:25:32.204Z,7.20
2018-04-23T08:28:00.523Z,6.90
2018-04-23T08:30:29.686Z,8.17
2018-04-23T08:32:57.509Z,7.67
2018-04-23T08:35:26.059Z,7.03
2018-04-23T08:37:53.862Z,7.43
2018-04-23T08:40:21.814Z,6.90
2018-04-23T08:42:49.502Z,7.90
2018-04-23T08:45:17.203Z,8.53
2018-04-23T08:47:44.786Z,8.40
2018-04-23T08:50:12.345Z,8.23
2018-04-23T08:52:39.918Z,8.57
2018-04-23T08:55:07.473Z,7.97
2018-04-23T08:57:35.050Z,7.70
2018-04-23T09:00:02.681Z,7.83
2018-04-23T09:02:30.321Z,8.27
2018-04-23T09:04:58.031Z,8.07
2018-04-23T09:07:25.917Z,7.90
2018-04-23T09:09:53.957Z,8.27
2018-04-23T09:12:21.592Z,8.27
2018-04-23T09:14:49.252Z,8.47
2018-04-23T09:17:16.870Z,9.17
2018-04-23T09:19:45.437Z,7.10
2018-04-23T09:22:12.998Z,7.90
2018-04-23T09:24:40.578Z,9.10
2018-04-23T09:27:08.139Z,7.83
2018-04-23T09:29:35.771Z,7.53
2018-04-23T09:32:03.418Z,7.30
2018-04-23T09:34:31.131Z,6.93
2018-04-23T09:36:59.654Z,7.90
2018-04-23T09:39:28.226Z,6.70
2018-04-23T09:41:57.398Z,7.17
2018-04-23T09:44:26.645Z,6.57
2018-04-23T09:46:55.187Z,6.70
2018-04-23T09:49:22.882Z,6.80
2018-04-23T09:51:50.442Z,6.17
2018-04-23T09:54:17.998Z,7.80
2018-04-23T09:56:45.569Z,6.30
2018-04-23T09:59:13.130Z,6.33
2018-04-23T10:01:46.278Z,6.80
2018-04-23T10:04:19.544Z,6.30
2018-04-23T10:06:47.982Z,6.83
2018-04-23T10:09:15.554Z,6.30
2018-04-23T10:11:43.131Z,6.17
2018-04-23T10:14:10.685Z,7.40
2018-04-23T10:16:38.262Z,6.83
2018-04-23T10:19:05.873Z,7.40
2018-04-23T10:21:34.274Z,7.97
2018-04-23T10:24:01.967Z,9.20
2018-04-23T10:26:29.850Z,8.37
2018-04-23T10:28:57.513Z,8.60
2018-04-23T10:31:25.270Z,7.80
2018-04-23T10:33:53.491Z,8.27
2018-04-23T10:36:21.302Z,8.03
2018-04-23T10:38:48.941Z,9.27
2018-04-23T10:41:16.547Z,8.70
2018-04-23T10:43:44.100Z,8.37
2018-04-23T10:46:11.663Z,8.47
2018-04-23T10:48:39.269Z,7.90
2018-04-23T10:51:06.855Z,9.27
2018-04-23T10:53:34.478Z,10.90
2018-04-23T10:56:02.075Z,9.70
2018-04-23T10:58:29.789Z,9.03
2018-04-23T11:00:57.713Z,9.37
2018-04-23T11:03:25.414Z,9.67
2018-04-23T11:05:53.803Z,8.60
2018-04-23T11:08:22.807Z,9.37
2018-04-23T11:10:50.494Z,9.10
2018-04-23T11:13:18.357Z,9.60
2018-04-23T11:15:45.919Z,8.53
2018-04-23T11:18:13.514Z,8.70
2018-04-23T11:20:41.090Z,7.40
2018-04-23T11:23:08.757Z,6.77
2018-04-23T11:25:36.309Z,6.90
2018-04-23T11:28:04.560Z,7.00
2018-04-23T11:30:32.986Z,5.90
2018-04-23T11:33:00.875Z,6.70
2018-04-23T11:35:28.515Z,6.90
2018-04-23T11:37:56.538Z,5.80
2018-04-23T11:40:25.217Z,6.37
2018-04-23T11:42:53.478Z,5.97
2018-04-23T11:45:22.607Z,6.20
2018-04-23T11:47:50.281Z,6.73
2018-04-23T11:50:19.008Z,6.13
2018-04-23T11:52:46.557Z,7.00
2018-04-23T11:55:14.129Z,6.03
2018-04-23T11:57:41.686Z,5.80
2018-04-23T12:00:09.258Z,4.90
2018-04-23T12:02:37.461Z,5.33
2018-04-23T12:05:05.066Z,5.13
2018-04-23T12:07:32.666Z,5.70
2018-04-23T12:10:01.087Z,10.10
2018-04-23T12:12:29.001Z,6.60
2018-04-23T12:14:56.794Z,6.20
2018-04-23T12:17:25.616Z,6.50
2018-04-23T12:19:54.352Z,6.00
2018-04-23T12:22:23.082Z,6.00
2018-04-23T12:24:50.765Z,6.30
2018-04-23T12:27:20.532Z,6.97
2018-04-23T12:29:48.849Z,6.30
2018-04-23T12:32:16.506Z,5.90
2018-04-23T12:34:45.113Z,6.10
2018-04-23T12:37:12.993Z,9.37
2018-04-23T12:39:40.660Z,6.00
2018-04-23T12:42:09.355Z,10.40
2018-04-23T12:44:37.126Z,5.50
2018-04-23T12:47:05.401Z,6.70
2018-04-23T12:49:34.776Z,6.10
2018-04-23T12:52:02.872Z,6.67
2018-04-23T12:54:30.514Z,6.67
2018-04-23T12:56:58.102Z,5.90
2018-04-23T12:59:25.663Z,6.40
2018-04-23T13:01:54.030Z,7.70
2018-04-23T13:04:21.612Z,6.57
2018-04-23T13:06:49.222Z,7.47
2018-04-23T13:09:16.889Z,5.23
2018-04-23T13:11:44.472Z,6.87
2018-04-23T13:14:12.153Z,6.33
2018-04-23T13:16:40.576Z,7.13
2018-04-23T13:19:08.957Z,6.67
2018-04-23T13:21:37.459Z,7.73
2018-04-23T13:24:06.977Z,6.70
2018-04-23T13:26:35.300Z,7.50
2018-04-23T13:29:03.075Z,6.10
2018-04-23T13:31:30.751Z,6.10
2018-04-23T13:33:58.445Z,5.77
2018-04-23T13:36:26.407Z,7.27
2018-04-23T13:38:54.916Z,7.63
2018-04-23T13:41:24.727Z,7.03
2018-04-23T13:43:53.829Z,6.00
2018-04-23T13:46:21.437Z,7.23
2018-04-23T13:48:49.875Z,7.00
2018-04-23T13:51:18.183Z,7.77
2018-04-23T13:53:45.741Z,8.40
2018-04-23T13:56:13.393Z,6.80
2018-04-23T13:58:41.721Z,6.30
2018-04-23T14:01:09.300Z,7.37
2018-04-23T14:03:36.868Z,7.57
2018-04-23T14:06:04.517Z,6.57
2018-04-23T14:08:32.159Z,6.60
2018-04-23T14:11:00.543Z,7.13
2018-04-23T14:13:28.382Z,5.87
2018-04-23T14:15:56.306Z,7.13
2018-04-23T14:18:24.183Z,6.53
2018-04-23T14:20:52.894Z,7.23
2018-04-23T14:23:20.553Z,7.23
2018-04-23T14:25:48.138Z,6.77
2018-04-23T14:28:15.698Z,7.23
2018-04-23T14:30:43.283Z,6.17
2018-04-23T14:33:10.841Z,7.27
2018-04-23T14:35:38.437Z,6.10
2018-04-23T14:38:06.763Z,7.23
2018-04-23T14:40:34.398Z,6.80
2018-04-23T14:43:02.833Z,5.67
2018-04-23T14:45:30.466Z,6.73
2018-04-23T14:47:58.148Z,8.20
2018-04-23T14:50:26.671Z,8.50
2018-04-23T14:52:54.537Z,10.10
2018-04-23T14:55:22.469Z,9.80
2018-04-23T14:57:50.058Z,9.47
2018-04-23T15:00:17.709Z,10.23
2018-04-23T15:02:48.167Z,10.10
2018-04-23T15:05:15.726Z,7.23
2018-04-23T15:07:43.393Z,8.20
2018-04-23T15:10:10.969Z,7.10
2018-04-23T15:12:38.547Z,5.13
2018-04-23T15:15:06.117Z,5.30
2018-04-23T15:17:33.957Z,5.30
2018-04-23T15:20:01.613Z,5.30
2018-04-23T15:22:29.240Z,5.77
2018-04-23T15:24:57.303Z,4.13
2018-04-23T15:27:24.993Z,6.57
2018-04-23T15:29:52.580Z,5.53
2018-04-23T15:32:20.962Z,5.67
2018-04-23T15:34:48.542Z,5.80
2018-04-23T15:37:16.114Z,5.23
2018-04-23T15:39:43.689Z,6.63
2018-04-23T15:42:11.248Z,6.23
2018-04-23T15:44:38.849Z,5.60
2018-04-23T15:47:07.319Z,5.00
2018-04-23T15:49:34.983Z,6.57
2018-04-23T15:52:02.764Z,6.57
2018-04-23T15:54:31.338Z,5.80
2018-04-23T15:57:00.741Z,6.60
2018-04-23T15:59:28.467Z,7.03
2018-04-23T16:01:57.332Z,5.93
2018-04-23T16:04:25.821Z,5.97
2018-04-23T16:06:53.785Z,6.10
2018-04-23T16:09:21.402Z,5.70
2018-04-23T16:11:48.989Z,4.90
2018-04-23T16:14:17.785Z,5.40
2018-04-23T16:16:45.449Z,5.80
2018-04-23T16:19:13.014Z,4.93
2018-04-23T16:21:40.697Z,5.20
2018-04-23T16:24:08.277Z,6.00
2018-04-23T16:26:36.654Z,6.17
2018-04-23T16:29:04.325Z,5.13
2018-04-23T16:31:32.431Z,6.10
2018-04-23T16:34:00.110Z,5.70
2018-04-23T16:36:28.167Z,5.43
2018-04-23T16:38:56.148Z,5.83
2018-04-23T16:41:24.077Z,5.67
2018-04-23T16:43:52.411Z,5.40
2018-04-23T16:46:20.108Z,5.50
2018-04-23T16:48:47.749Z,6.27
2018-04-23T16:51:15.328Z,5.00
2018-04-23T16:53:42.885Z,5.83
2018-04-23T16:56:10.775Z,5.80
2018-04-23T16:58:38.486Z,6.57
2018-04-23T17:01:06.067Z,5.80
2018-04-23T17:03:33.931Z,6.80
2018-04-23T17:06:01.566Z,6.77
2018-04-23T17:08:29.428Z,5.90
2018-04-23T17:10:58.299Z,6.13
2018-04-23T17:13:26.238Z,5.40
2018-04-23T17:15:54.209Z,6.00
2018-04-23T17:18:22.632Z,5.67
2018-04-23T17:20:50.216Z,6.03
2018-04-23T17:23:17.817Z,6.30
2018-04-23T17:25:46.659Z,5.77
2018-04-23T17:28:14.429Z,5.37
2018-04-23T17:30:42.009Z,6.43
2018-04-23T17:33:09.591Z,6.30
2018-04-23T17:35:39.594Z,6.70
2018-04-23T17:38:07.251Z,6.47
2018-04-23T17:40:35.648Z,6.67
2018-04-23T17:43:04.318Z,6.60
2018-04-23T17:45:31.963Z,6.67
2018-04-23T17:47:59.624Z,8.30
2018-04-23T17:50:27.349Z,8.63
2018-04-23T17:52:55.797Z,10.23
2018-04-23T17:55:23.894Z,9.80
2018-04-23T17:57:52.414Z,11.50
2018-04-23T18:00:20.070Z,11.37
2018-04-23T18:02:47.628Z,10.57
2018-04-23T18:05:15.224Z,11.53
2018-04-23T18:07:42.803Z,11.67
2018-04-23T18:10:10.386Z,13.37
2018-04-23T18:12:38.778Z,12.37
2018-04-23T18:15:06.442Z,13.13
2018-04-23T18:17:35.101Z,14.00
2018-04-23T18:20:05.567Z,14.30
2018-04-23T18:22:34.193Z,15.47
2018-04-23T18:25:01.846Z,14.77
2018-04-23T18:27:29.460Z,17.10
2018-04-23T18:29:57.563Z,12.43
2018-04-23T18:32:25.363Z,17.87
2018-04-23T18:34:53.250Z,19.63
2018-04-23T18:37:20.969Z,20.40
2018-04-23T18:39:49.309Z,18.50
2018-04-23T18:42:16.900Z,19.40
2018-04-23T18:44:47.506Z,16.30
2018-04-23T18:47:15.101Z,18.20
2018-04-23T18:49:42.670Z,18.40
2018-04-23T18:52:11.028Z,17.30
2018-04-23T18:54:38.593Z,16.50
2018-04-23T18:57:06.937Z,15.40
2018-04-23T18:59:35.452Z,15.38
2018-04-23T19:02:03.280Z,16.07
2018-04-23T19:04:31.422Z,15.87
2018-04-23T19:06:59.583Z,15.30
2018-04-23T19:09:28.763Z,16.70
2018-04-23T19:11:56.409Z,15.37
2018-04-23T19:14:24.393Z,16.03
2018-04-23T19:16:52.034Z,15.53
2018-04-23T19:19:19.698Z,11.80
2018-04-23T19:21:47.273Z,11.40
2018-04-23T19:24:17.169Z,13.47
2018-04-23T19:26:44.769Z,8.90
2018-04-23T19:29:12.353Z,10.60
2018-04-23T19:31:41.430Z,15.90
2018-04-23T19:34:09.045Z,17.57
2018-04-23T19:36:36.610Z,16.87
2018-04-23T19:39:08.211Z,13.87
2018-04-23T19:41:35.826Z,17.33
2018-04-23T19:44:03.463Z,18.10
2018-04-23T19:46:31.086Z,16.20
2018-04-23T19:48:59.917Z,18.83
2018-04-23T19:51:27.670Z,20.07
2018-04-23T19:53:56.167Z,17.87
2018-04-23T19:56:25.253Z,21.00
2018-04-23T19:58:53.273Z,19.73
2018-04-23T20:01:20.852Z,19.80
2018-04-23T20:03:49.765Z,21.73
2018-04-23T20:06:18.119Z,18.43
2018-04-23T20:08:45.781Z,20.83
2018-04-23T20:11:13.349Z,21.42
2018-04-23T20:13:40.914Z,19.97
2018-04-23T20:16:26.370Z,15.07
2018-04-23T20:18:55.306Z,19.60
2018-04-23T20:21:23.729Z,18.17
2018-04-23T20:23:51.897Z,18.80
2018-04-23T20:26:19.486Z,19.43
2018-04-23T20:28:47.070Z,19.08
2018-04-23T20:31:14.665Z,19.08
2018-04-23T20:33:43.015Z,18.93
2018-04-23T20:36:10.693Z,18.65
2018-04-23T20:38:38.331Z,18.50
2018-04-23T20:41:06.136Z,15.82
2018-04-23T20:43:34.121Z,18.42
2018-04-23T20:46:01.829Z,19.07
2018-04-23T20:48:29.473Z,18.30
2018-04-23T20:50:58.883Z,20.30
2018-04-23T20:53:26.895Z,20.93
2018-04-23T20:55:55.534Z,21.97
2018-04-23T20:58:23.615Z,19.53
2018-04-23T21:00:52.043Z,20.50
2018-04-23T21:03:20.197Z,17.37
2018-04-23T21:05:47.905Z,18.50
2018-04-23T21:08:15.477Z,18.90
2018-04-23T21:10:43.982Z,19.35
2018-04-23T21:13:11.575Z,17.10
2018-04-23T21:15:39.913Z,18.55
2018-04-23T21:18:07.518Z,17.93
2018-04-23T21:20:36.303Z,20.90
2018-04-23T21:23:03.948Z,20.45
2018-04-23T21:25:32.343Z,20.40
2018-04-23T21:28:00.332Z,20.80
2018-04-23T21:30:28.356Z,21.00
2018-04-23T21:32:59.775Z,20.27
2018-04-23T21:35:27.838Z,19.75
2018-04-23T21:37:56.179Z,20.55
2018-04-23T21:40:26.789Z,18.75
2018-04-23T21:42:54.521Z,21.05
2018-04-23T21:45:22.869Z,19.70
2018-04-23T21:47:50.499Z,19.23
2018-04-23T21:50:18.833Z,19.10
2018-04-23T21:52:46.446Z,18.83
2018-04-23T21:55:14.014Z,18.92
2018-04-23T21:57:41.669Z,20.33
2018-04-23T22:00:09.267Z,20.45
2018-04-23T22:02:36.946Z,19.80
2018-04-23T22:05:05.478Z,22.30
2018-04-23T22:07:33.157Z,17.58
2018-04-23T22:10:00.762Z,19.15
2018-04-23T22:12:28.356Z,18.83
2018-04-23T22:14:57.375Z,19.62
2018-04-23T22:17:25.820Z,21.67
2018-04-23T22:19:53.441Z,20.60
2018-04-23T22:22:21.786Z,21.30
2018-04-23T22:24:49.539Z,22.40
2018-04-23T22:27:17.149Z,21.95
2018-04-23T22:29:44.728Z,20.23
2018-04-23T22:32:13.229Z,20.27
2018-04-23T22:34:40.814Z,19.90
2018-04-23T22:37:09.145Z,20.73
2018-04-23T22:39:36.749Z,18.40
2018-04-23T22:42:05.209Z,20.02
2018-04-23T22:44:32.781Z,19.17
2018-04-23T22:47:00.882Z,19.58
2018-04-23T22:49:29.010Z,20.90
2018-04-23T22:51:58.571Z,19.90
2018-04-23T22:54:26.282Z,20.85
2018-04-23T22:56:54.019Z,20.90
2018-04-23T22:59:21.646Z,21.40
2018-04-23T23:01:49.238Z,19.37
2018-04-23T23:04:17.562Z,22.60
2018-04-23T23:06:45.171Z,22.45
2018-04-23T23:09:12.733Z,18.70
2018-04-23T23:11:40.412Z,19.98
2018-04-23T23:14:07.990Z,20.60
2018-04-23T23:16:35.598Z,23.15
2018-04-23T23:19:03.953Z,22.58
2018-04-23T23:21:31.697Z,21.50
2018-04-23T23:23:59.350Z,20.00
2018-04-23T23:26:27.057Z,19.25
2018-04-23T23:28:55.454Z,21.52
2018-04-23T23:31:23.327Z,23.50
2018-04-23T23:33:51.709Z,22.40
2018-04-23T23:36:19.310Z,22.45
2018-04-23T23:38:46.868Z,20.02
2018-04-23T23:41:14.549Z,20.75
2018-04-23T23:43:42.229Z,22.35
2018-04-23T23:46:09.801Z,23.67
2018-04-23T23:48:37.490Z,24.63
2018-04-23T23:51:05.090Z,23.42
2018-04-23T23:53:33.523Z,21.52
2018-04-23T23:56:01.158Z,19.77
2018-04-23T23:58:28.858Z,18.45
